sensor_id;sensor_type;location;lat;lon;timestamp;pressure;altitude;pressure_sealevel;temperature;humidity
21904;BME280;11116;51.554;7.812;2022-10-16T00:00:29;100342.31;;;13.39;100.00
21904;BME280;11116;51.554;7.812;2022-10-16T00:02:58;100333.31;;;13.49;100.00
21904;BME280;11116;51.554;7.812;2022-10-16T00:05:24;100323.66;;;13.48;100.00
21904;BME280;11116;51.554;7.812;2022-10-16T00:07:51;100326.94;;;13.94;100.00
21904;BME280;11116;51.554;7.812;2022-10-16T00:10:18;100309.84;;;13.63;100.00
21904;BME280;11116;51.554;7.812;2022-10-16T00:12:44;100309.47;;;13.57;100.00
21904;BME280;11116;51.554;7.812;2022-10-16T00:15:11;100311.44;;;13.55;100.00
21904;BME280;11116;51.554;7.812;2022-10-16T00:17:38;100315.75;;;13.56;100.00
21904;BME280;11116;51.554;7.812;2022-10-16T00:20:07;100310.13;;;13.59;100.00
21904;BME280;11116;51.554;7.812;2022-10-16T00:22:34;100310.22;;;13.50;100.00
21904;BME280;11116;51.554;7.812;2022-10-16T00:25:00;100309.88;;;13.45;100.00
21904;BME280;11116;51.554;7.812;2022-10-16T00:27:27;100327.47;;;13.46;100.00
21904;BME280;11116;51.554;7.812;2022-10-16T00:29:54;100330.41;;;13.61;100.00
21904;BME280;11116;51.554;7.812;2022-10-16T00:32:21;100322.69;;;13.49;100.00
21904;BME280;11116;51.554;7.812;2022-10-16T00:34:47;100324.09;;;13.44;100.00
21904;BME280;11116;51.554;7.812;2022-10-16T00:37:16;100318.13;;;13.42;100.00
21904;BME280;11116;51.554;7.812;2022-10-16T00:39:42;100322.81;;;13.48;100.00
21904;BME280;11116;51.554;7.812;2022-10-16T00:42:13;100321.72;;;13.58;100.00
21904;BME280;11116;51.554;7.812;2022-10-16T00:44:49;100324.50;;;13.49;100.00
21904;BME280;11116;51.554;7.812;2022-10-16T00:47:21;100324.03;;;13.53;100.00
21904;BME280;11116;51.554;7.812;2022-10-16T00:49:50;100325.41;;;13.57;100.00
21904;BME280;11116;51.554;7.812;2022-10-16T00:52:19;100327.34;;;13.55;100.00
21904;BME280;11116;51.554;7.812;2022-10-16T00:54:46;100323.81;;;13.47;100.00
21904;BME280;11116;51.554;7.812;2022-10-16T00:57:13;100316.22;;;13.52;100.00
21904;BME280;11116;51.554;7.812;2022-10-16T00:59:41;100317.00;;;13.44;100.00
21904;BME280;11116;51.554;7.812;2022-10-16T01:02:12;100315.69;;;13.48;100.00
21904;BME280;11116;51.554;7.812;2022-10-16T01:04:40;100318.00;;;13.43;100.00
21904;BME280;11116;51.554;7.812;2022-10-16T01:07:12;100311.38;;;13.47;100.00
21904;BME280;11116;51.554;7.812;2022-10-16T01:09:49;100310.16;;;13.42;100.00
21904;BME280;11116;51.554;7.812;2022-10-16T01:12:23;100311.94;;;13.33;100.00
21904;BME280;11116;51.554;7.812;2022-10-16T01:14:58;100311.31;;;13.39;100.00
21904;BME280;11116;51.554;7.812;2022-10-16T01:17:31;100305.47;;;13.36;100.00
21904;BME280;11116;51.554;7.812;2022-10-16T01:20:08;100314.44;;;13.35;100.00
21904;BME280;11116;51.554;7.812;2022-10-16T01:22:43;100317.91;;;13.35;100.00
21904;BME280;11116;51.554;7.812;2022-10-16T01:25:19;100312.88;;;13.50;100.00
21904;BME280;11116;51.554;7.812;2022-10-16T01:27:51;100313.81;;;13.41;100.00
21904;BME280;11116;51.554;7.812;2022-10-16T01:30:23;100315.13;;;13.63;100.00
21904;BME280;11116;51.554;7.812;2022-10-16T01:32:55;100312.44;;;13.54;100.00
21904;BME280;11116;51.554;7.812;2022-10-16T01:35:27;100312.88;;;13.50;100.00
21904;BME280;11116;51.554;7.812;2022-10-16T01:38:00;100318.75;;;13.36;100.00
21904;BME280;11116;51.554;7.812;2022-10-16T01:40:30;100324.94;;;13.44;100.00
21904;BME280;11116;51.554;7.812;2022-10-16T01:43:02;100333.50;;;13.38;100.00
21904;BME280;11116;51.554;7.812;2022-10-16T01:45:31;100335.25;;;13.30;100.00
21904;BME280;11116;51.554;7.812;2022-10-16T01:48:00;100339.38;;;13.24;100.00
21904;BME280;11116;51.554;7.812;2022-10-16T01:50:33;100328.94;;;13.23;100.00
21904;BME280;11116;51.554;7.812;2022-10-16T01:53:02;100329.06;;;13.39;100.00
21904;BME280;11116;51.554;7.812;2022-10-16T01:55:33;100318.31;;;13.66;100.00
21904;BME280;11116;51.554;7.812;2022-10-16T01:58:03;100316.69;;;13.47;100.00
21904;BME280;11116;51.554;7.812;2022-10-16T02:00:31;100311.63;;;13.36;100.00
21904;BME280;11116;51.554;7.812;2022-10-16T02:02:58;100312.47;;;13.37;100.00
21904;BME280;11116;51.554;7.812;2022-10-16T02:05:30;100310.22;;;13.50;100.00
21904;BME280;11116;51.554;7.812;2022-10-16T02:07:59;100304.94;;;13.32;100.00
21904;BME280;11116;51.554;7.812;2022-10-16T02:10:26;100317.38;;;13.49;100.00
21904;BME280;11116;51.554;7.812;2022-10-16T02:12:59;100302.19;;;13.59;100.00
21904;BME280;11116;51.554;7.812;2022-10-16T02:15:28;100307.53;;;13.68;100.00
21904;BME280;11116;51.554;7.812;2022-10-16T02:17:55;100302.06;;;13.43;100.00
21904;BME280;11116;51.554;7.812;2022-10-16T02:20:25;100303.00;;;13.34;100.00
21904;BME280;11116;51.554;7.812;2022-10-16T02:22:54;100312.69;;;13.43;100.00
21904;BME280;11116;51.554;7.812;2022-10-16T02:25:26;100323.44;;;13.42;100.00
21904;BME280;11116;51.554;7.812;2022-10-16T02:27:57;100321.09;;;13.39;100.00
21904;BME280;11116;51.554;7.812;2022-10-16T02:30:32;100327.81;;;13.51;100.00
21904;BME280;11116;51.554;7.812;2022-10-16T02:33:00;100319.81;;;13.43;100.00
21904;BME280;11116;51.554;7.812;2022-10-16T02:35:30;100329.34;;;13.36;100.00
21904;BME280;11116;51.554;7.812;2022-10-16T02:37:58;100334.53;;;13.37;100.00
21904;BME280;11116;51.554;7.812;2022-10-16T02:40:25;100331.16;;;13.35;100.00
21904;BME280;11116;51.554;7.812;2022-10-16T02:42:54;100332.25;;;13.25;100.00
21904;BME280;11116;51.554;7.812;2022-10-16T02:45:21;100324.50;;;13.49;100.00
21904;BME280;11116;51.554;7.812;2022-10-16T02:47:50;100318.44;;;13.39;100.00
21904;BME280;11116;51.554;7.812;2022-10-16T02:50:16;100319.63;;;13.44;100.00
21904;BME280;11116;51.554;7.812;2022-10-16T02:52:43;100319.03;;;13.33;100.00
21904;BME280;11116;51.554;7.812;2022-10-16T02:55:10;100317.22;;;13.33;100.00
21904;BME280;11116;51.554;7.812;2022-10-16T02:57:36;100328.00;;;13.32;100.00
21904;BME280;11116;51.554;7.812;2022-10-16T03:00:06;100324.97;;;13.27;100.00
21904;BME280;11116;51.554;7.812;2022-10-16T03:02:33;100322.53;;;13.33;100.00
21904;BME280;11116;51.554;7.812;2022-10-16T03:05:01;100325.97;;;13.26;100.00
21904;BME280;11116;51.554;7.812;2022-10-16T03:07:28;100329.59;;;13.25;100.00
21904;BME280;11116;51.554;7.812;2022-10-16T03:09:54;100327.09;;;13.23;100.00
21904;BME280;11116;51.554;7.812;2022-10-16T03:12:22;100316.03;;;13.28;100.00
21904;BME280;11116;51.554;7.812;2022-10-16T03:14:48;100322.31;;;13.27;100.00
21904;BME280;11116;51.554;7.812;2022-10-16T03:17:15;100320.06;;;13.32;100.00
21904;BME280;11116;51.554;7.812;2022-10-16T03:19:42;100313.59;;;13.34;100.00
21904;BME280;11116;51.554;7.812;2022-10-16T03:22:10;100311.78;;;13.35;100.00
21904;BME280;11116;51.554;7.812;2022-10-16T03:24:37;100324.75;;;13.38;100.00
21904;BME280;11116;51.554;7.812;2022-10-16T03:27:04;100325.00;;;13.52;100.00
21904;BME280;11116;51.554;7.812;2022-10-16T03:29:31;100319.09;;;13.58;100.00
21904;BME280;11116;51.554;7.812;2022-10-16T03:31:58;100328.50;;;13.79;100.00
21904;BME280;11116;51.554;7.812;2022-10-16T03:34:25;100317.41;;;13.75;100.00
21904;BME280;11116;51.554;7.812;2022-10-16T03:36:52;100312.13;;;13.57;100.00
21904;BME280;11116;51.554;7.812;2022-10-16T03:39:20;100319.34;;;13.73;100.00
21904;BME280;11116;51.554;7.812;2022-10-16T03:41:46;100304.31;;;13.56;100.00
21904;BME280;11116;51.554;7.812;2022-10-16T03:44:13;100294.25;;;13.68;100.00
21904;BME280;11116;51.554;7.812;2022-10-16T03:46:40;100292.19;;;13.53;100.00
21904;BME280;11116;51.554;7.812;2022-10-16T03:49:07;100292.84;;;13.55;100.00
21904;BME280;11116;51.554;7.812;2022-10-16T03:51:33;100298.81;;;13.49;100.00
21904;BME280;11116;51.554;7.812;2022-10-16T03:54:00;100290.31;;;13.46;100.00
21904;BME280;11116;51.554;7.812;2022-10-16T03:56:28;100296.78;;;13.43;100.00
21904;BME280;11116;51.554;7.812;2022-10-16T03:58:55;100310.03;;;13.43;100.00
21904;BME280;11116;51.554;7.812;2022-10-16T04:01:21;100316.69;;;13.47;100.00
21904;BME280;11116;51.554;7.812;2022-10-16T04:03:48;100324.66;;;13.73;100.00
21904;BME280;11116;51.554;7.812;2022-10-16T04:06:15;100318.72;;;13.79;100.00
21904;BME280;11116;51.554;7.812;2022-10-16T04:08:42;100308.47;;;13.58;100.00
21904;BME280;11116;51.554;7.812;2022-10-16T04:11:09;100316.03;;;13.71;100.00
21904;BME280;11116;51.554;7.812;2022-10-16T04:13:37;100316.13;;;13.62;100.00
21904;BME280;11116;51.554;7.812;2022-10-16T04:16:04;100318.06;;;13.51;100.00
21904;BME280;11116;51.554;7.812;2022-10-16T04:18:30;100322.47;;;13.43;100.00
21904;BME280;11116;51.554;7.812;2022-10-16T04:21:02;100315.13;;;13.63;100.00
21904;BME280;11116;51.554;7.812;2022-10-16T04:23:29;100312.69;;;13.43;100.00
21904;BME280;11116;51.554;7.812;2022-10-16T04:25:55;100328.44;;;13.27;100.00
21904;BME280;11116;51.554;7.812;2022-10-16T04:28:22;100329.13;;;13.29;100.00
21904;BME280;11116;51.554;7.812;2022-10-16T04:30:50;100329.22;;;13.20;100.00
21904;BME280;11116;51.554;7.812;2022-10-16T04:33:17;100340.81;;;13.19;100.00
21904;BME280;11116;51.554;7.812;2022-10-16T04:35:43;100346.19;;;13.09;100.00
21904;BME280;11116;51.554;7.812;2022-10-16T04:38:12;100358.47;;;13.28;100.00
21904;BME280;11116;51.554;7.812;2022-10-16T04:40:39;100348.53;;;13.30;100.00
21904;BME280;11116;51.554;7.812;2022-10-16T04:43:06;100337.72;;;13.23;100.00
21904;BME280;11116;51.554;7.812;2022-10-16T04:45:32;100331.78;;;13.29;100.00
21904;BME280;11116;51.554;7.812;2022-10-16T04:48:00;100332.47;;;13.14;100.00
21904;BME280;11116;51.554;7.812;2022-10-16T04:50:27;100340.75;;;13.28;100.00
21904;BME280;11116;51.554;7.812;2022-10-16T04:53:04;100349.75;;;13.35;100.00
21904;BME280;11116;51.554;7.812;2022-10-16T04:55:31;100357.94;;;13.24;100.00
21904;BME280;11116;51.554;7.812;2022-10-16T04:57:57;100354.13;;;13.27;100.00
21904;BME280;11116;51.554;7.812;2022-10-16T05:00:24;100357.56;;;13.54;100.00
21904;BME280;11116;51.554;7.812;2022-10-16T05:02:51;100352.31;;;13.45;100.00
21904;BME280;11116;51.554;7.812;2022-10-16T05:05:19;100349.44;;;13.38;100.00
21904;BME280;11116;51.554;7.812;2022-10-16T05:07:46;100353.16;;;13.45;100.00
21904;BME280;11116;51.554;7.812;2022-10-16T05:10:13;100339.22;;;13.43;100.00
21904;BME280;11116;51.554;7.812;2022-10-16T05:12:39;100336.53;;;13.61;100.00
21904;BME280;11116;51.554;7.812;2022-10-16T05:15:07;100341.56;;;13.46;100.00
21904;BME280;11116;51.554;7.812;2022-10-16T05:17:34;100343.22;;;13.30;100.00
21904;BME280;11116;51.554;7.812;2022-10-16T05:20:00;100347.78;;;13.37;100.00
21904;BME280;11116;51.554;7.812;2022-10-16T05:22:29;100352.38;;;13.35;100.00
21904;BME280;11116;51.554;7.812;2022-10-16T05:24:55;100359.97;;;13.30;100.00
21904;BME280;11116;51.554;7.812;2022-10-16T05:27:22;100365.22;;;13.40;100.00
21904;BME280;11116;51.554;7.812;2022-10-16T05:29:49;100365.66;;;13.53;100.00
21904;BME280;11116;51.554;7.812;2022-10-16T05:32:17;100370.06;;;13.44;100.00
21904;BME280;11116;51.554;7.812;2022-10-16T05:34:45;100370.88;;;13.63;100.00
21904;BME280;11116;51.554;7.812;2022-10-16T05:37:12;100366.53;;;13.62;100.00
21904;BME280;11116;51.554;7.812;2022-10-16T05:39:40;100376.13;;;13.54;100.00
21904;BME280;11116;51.554;7.812;2022-10-16T05:42:07;100387.28;;;13.58;100.00
21904;BME280;11116;51.554;7.812;2022-10-16T05:44:33;100385.66;;;13.65;100.00
21904;BME280;11116;51.554;7.812;2022-10-16T05:47:00;100392.97;;;13.45;100.00
21904;BME280;11116;51.554;7.812;2022-10-16T05:49:27;100400.38;;;13.42;100.00
21904;BME280;11116;51.554;7.812;2022-10-16T05:51:54;100400.44;;;13.32;100.00
21904;BME280;11116;51.554;7.812;2022-10-16T05:54:20;100411.34;;;13.29;100.00
21904;BME280;11116;51.554;7.812;2022-10-16T05:56:48;100419.94;;;13.41;100.00
21904;BME280;11116;51.554;7.812;2022-10-16T05:59:15;100422.50;;;13.50;100.00
21904;BME280;11116;51.554;7.812;2022-10-16T06:01:42;100411.91;;;13.50;100.00
21904;BME280;11116;51.554;7.812;2022-10-16T06:04:08;100404.84;;;13.59;100.00
21904;BME280;11116;51.554;7.812;2022-10-16T06:06:35;100409.72;;;13.46;100.00
21904;BME280;11116;51.554;7.812;2022-10-16T06:09:03;100416.75;;;13.37;100.00
21904;BME280;11116;51.554;7.812;2022-10-16T06:11:31;100415.38;;;13.33;100.00
21904;BME280;11116;51.554;7.812;2022-10-16T06:14:00;100427.59;;;13.44;100.00
21904;BME280;11116;51.554;7.812;2022-10-16T06:16:32;100430.94;;;13.46;100.00
21904;BME280;11116;51.554;7.812;2022-10-16T06:18:59;100435.19;;;13.56;100.00
21904;BME280;11116;51.554;7.812;2022-10-16T06:21:27;100437.28;;;13.71;100.00
21904;BME280;11116;51.554;7.812;2022-10-16T06:23:55;100429.94;;;13.65;100.00
21904;BME280;11116;51.554;7.812;2022-10-16T06:26:24;100428.88;;;13.75;100.00
21904;BME280;11116;51.554;7.812;2022-10-16T06:28:54;100435.09;;;13.84;100.00
21904;BME280;11116;51.554;7.812;2022-10-16T06:31:22;100443.38;;;13.81;100.00
21904;BME280;11116;51.554;7.812;2022-10-16T06:33:53;100450.72;;;13.87;100.00
21904;BME280;11116;51.554;7.812;2022-10-16T06:36:20;100456.09;;;13.77;100.00
21904;BME280;11116;51.554;7.812;2022-10-16T06:38:47;100462.31;;;13.68;100.00
21904;BME280;11116;51.554;7.812;2022-10-16T06:41:15;100457.56;;;13.72;100.00
21904;BME280;11116;51.554;7.812;2022-10-16T06:43:42;100463.69;;;13.90;100.00
21904;BME280;11116;51.554;7.812;2022-10-16T06:46:11;100459.59;;;13.78;100.00
21904;BME280;11116;51.554;7.812;2022-10-16T06:48:39;100464.38;;;13.92;100.00
21904;BME280;11116;51.554;7.812;2022-10-16T06:51:09;100472.47;;;13.90;100.00
21904;BME280;11116;51.554;7.812;2022-10-16T06:53:38;100477.63;;;13.92;100.00
21904;BME280;11116;51.554;7.812;2022-10-16T06:56:09;100472.47;;;13.90;100.00
21904;BME280;11116;51.554;7.812;2022-10-16T06:58:36;100469.66;;;14.09;100.00
21904;BME280;11116;51.554;7.812;2022-10-16T07:01:03;100485.50;;;14.19;100.00
21904;BME280;11116;51.554;7.812;2022-10-16T07:03:35;100481.47;;;14.15;100.00
21904;BME280;11116;51.554;7.812;2022-10-16T07:06:05;100482.50;;;14.22;100.00
21904;BME280;11116;51.554;7.812;2022-10-16T07:08:33;100492.25;;;14.13;100.00
21904;BME280;11116;51.554;7.812;2022-10-16T07:11:00;100503.72;;;14.14;100.00
21904;BME280;11116;51.554;7.812;2022-10-16T07:13:27;100501.59;;;14.18;100.00
21904;BME280;11116;51.554;7.812;2022-10-16T07:15:54;100515.22;;;14.23;100.00
21904;BME280;11116;51.554;7.812;2022-10-16T07:18:20;100517.28;;;14.29;100.00
21904;BME280;11116;51.554;7.812;2022-10-16T07:20:51;100530.94;;;14.34;100.00
21904;BME280;11116;51.554;7.812;2022-10-16T07:23:19;100534.63;;;14.33;100.00
21904;BME280;11116;51.554;7.812;2022-10-16T07:25:53;100527.88;;;14.64;100.00
21904;BME280;11116;51.554;7.812;2022-10-16T07:28:19;100521.50;;;14.83;100.00
21904;BME280;11116;51.554;7.812;2022-10-16T07:30:46;100527.63;;;14.83;100.00
21904;BME280;11116;51.554;7.812;2022-10-16T07:33:13;100522.41;;;14.99;100.00
21904;BME280;11116;51.554;7.812;2022-10-16T07:35:47;100523.44;;;15.06;99.28
21904;BME280;11116;51.554;7.812;2022-10-16T07:38:14;100526.06;;;14.98;98.95
21904;BME280;11116;51.554;7.812;2022-10-16T07:40:42;100530.44;;;15.07;98.81
21904;BME280;11116;51.554;7.812;2022-10-16T07:43:09;100541.13;;;14.90;99.30
21904;BME280;11116;51.554;7.812;2022-10-16T07:45:35;100549.78;;;14.92;99.56
21904;BME280;11116;51.554;7.812;2022-10-16T07:48:02;100543.44;;;14.85;100.00
21904;BME280;11116;51.554;7.812;2022-10-16T07:50:29;100550.91;;;14.81;100.00
21904;BME280;11116;51.554;7.812;2022-10-16T07:52:56;100548.91;;;14.83;100.00
21904;BME280;11116;51.554;7.812;2022-10-16T07:55:23;100550.78;;;14.91;100.00
21904;BME280;11116;51.554;7.812;2022-10-16T07:57:51;100551.78;;;14.90;99.92
21904;BME280;11116;51.554;7.812;2022-10-16T08:00:18;100549.13;;;14.90;99.83
21904;BME280;11116;51.554;7.812;2022-10-16T08:02:44;100551.38;;;14.77;99.60
21904;BME280;11116;51.554;7.812;2022-10-16T08:05:11;100550.28;;;14.87;99.68
21904;BME280;11116;51.554;7.812;2022-10-16T08:07:38;100564.06;;;14.83;100.00
21904;BME280;11116;51.554;7.812;2022-10-16T08:10:05;100569.38;;;14.83;100.00
21904;BME280;11116;51.554;7.812;2022-10-16T08:12:32;100563.44;;;14.89;99.86
21904;BME280;11116;51.554;7.812;2022-10-16T08:15:00;100573.31;;;14.79;99.56
21904;BME280;11116;51.554;7.812;2022-10-16T08:17:26;100583.66;;;14.82;99.96
21904;BME280;11116;51.554;7.812;2022-10-16T08:19:53;100583.72;;;14.98;99.62
21904;BME280;11116;51.554;7.812;2022-10-16T08:22:20;100595.94;;;15.08;99.79
21904;BME280;11116;51.554;7.812;2022-10-16T08:24:46;100594.72;;;15.28;98.96
21904;BME280;11116;51.554;7.812;2022-10-16T08:27:13;100582.50;;;15.44;97.28
21904;BME280;11116;51.554;7.812;2022-10-16T08:29:40;100594.41;;;15.73;96.42
21904;BME280;11116;51.554;7.812;2022-10-16T08:32:08;100597.72;;;15.67;96.60
21904;BME280;11116;51.554;7.812;2022-10-16T08:34:34;100589.63;;;15.85;96.14
21904;BME280;11116;51.554;7.812;2022-10-16T08:37:01;100588.13;;;15.91;94.80
21904;BME280;11116;51.554;7.812;2022-10-16T08:39:28;100596.50;;;16.04;94.34
21904;BME280;11116;51.554;7.812;2022-10-16T08:42:10;100595.47;;;15.89;94.22
21904;BME280;11116;51.554;7.812;2022-10-16T08:45:00;100601.84;;;16.04;93.64
21904;BME280;11116;51.554;7.812;2022-10-16T08:47:39;100616.34;;;16.17;93.08
21904;BME280;11116;51.554;7.812;2022-10-16T08:50:11;100611.38;;;16.30;92.38
21904;BME280;11116;51.554;7.812;2022-10-16T08:52:40;100612.88;;;16.25;91.82
21904;BME280;11116;51.554;7.812;2022-10-16T08:55:17;100611.84;;;16.26;91.71
21904;BME280;11116;51.554;7.812;2022-10-16T08:57:47;100625.88;;;16.44;90.89
21904;BME280;11116;51.554;7.812;2022-10-16T09:00:15;100625.22;;;16.42;90.52
21904;BME280;11116;51.554;7.812;2022-10-16T09:02:50;100628.41;;;16.54;89.51
21904;BME280;11116;51.554;7.812;2022-10-16T09:05:40;100629.72;;;16.50;88.41
21904;BME280;11116;51.554;7.812;2022-10-16T09:08:17;100632.72;;;16.55;88.42
21904;BME280;11116;51.554;7.812;2022-10-16T09:10:56;100616.53;;;16.80;87.17
21904;BME280;11116;51.554;7.812;2022-10-16T09:13:28;100624.06;;;16.85;85.36
21904;BME280;11116;51.554;7.812;2022-10-16T09:16:14;100634.09;;;16.83;84.88
21904;BME280;11116;51.554;7.812;2022-10-16T09:18:49;100619.03;;;16.90;83.22
21904;BME280;11116;51.554;7.812;2022-10-16T09:21:21;100634.72;;;17.09;83.79
21904;BME280;11116;51.554;7.812;2022-10-16T09:23:50;100644.88;;;17.14;83.68
21904;BME280;11116;51.554;7.812;2022-10-16T09:26:17;100639.16;;;17.25;83.54
21904;BME280;11116;51.554;7.812;2022-10-16T09:28:44;100636.50;;;17.25;82.52
21904;BME280;11116;51.554;7.812;2022-10-16T09:31:22;100634.84;;;17.24;82.20
21904;BME280;11116;51.554;7.812;2022-10-16T09:33:53;100629.31;;;17.25;81.00
21904;BME280;11116;51.554;7.812;2022-10-16T09:36:21;100630.69;;;17.13;80.70
21904;BME280;11116;51.554;7.812;2022-10-16T09:38:49;100632.97;;;17.24;80.35
21904;BME280;11116;51.554;7.812;2022-10-16T09:41:21;100632.81;;;17.34;80.53
21904;BME280;11116;51.554;7.812;2022-10-16T09:43:53;100641.13;;;17.55;81.25
21904;BME280;11116;51.554;7.812;2022-10-16T09:46:24;100642.81;;;17.87;81.07
21904;BME280;11116;51.554;7.812;2022-10-16T09:48:54;100634.59;;;17.58;79.20
21904;BME280;11116;51.554;7.812;2022-10-16T09:51:24;100650.59;;;17.66;79.33
21904;BME280;11116;51.554;7.812;2022-10-16T09:53:54;100654.09;;;17.66;79.55
21904;BME280;11116;51.554;7.812;2022-10-16T09:56:23;100658.22;;;17.77;78.67
21904;BME280;11116;51.554;7.812;2022-10-16T09:58:51;100657.38;;;17.84;79.51
21904;BME280;11116;51.554;7.812;2022-10-16T10:01:19;100662.31;;;17.95;79.11
21904;BME280;11116;51.554;7.812;2022-10-16T10:03:47;100656.19;;;17.87;78.74
21904;BME280;11116;51.554;7.812;2022-10-16T10:06:21;100662.91;;;18.14;78.75
21904;BME280;11116;51.554;7.812;2022-10-16T10:08:57;100671.41;;;18.40;78.87
21904;BME280;11116;51.554;7.812;2022-10-16T10:11:49;100659.81;;;18.25;77.70
21904;BME280;11116;51.554;7.812;2022-10-16T10:14:25;100661.38;;;18.11;77.50
21904;BME280;11116;51.554;7.812;2022-10-16T10:17:12;100654.19;;;18.12;76.71
21904;BME280;11116;51.554;7.812;2022-10-16T10:19:42;100656.66;;;18.44;76.45
21904;BME280;11116;51.554;7.812;2022-10-16T10:22:22;100656.78;;;18.28;75.48
21904;BME280;11116;51.554;7.812;2022-10-16T10:25:12;100665.22;;;18.17;74.95
21904;BME280;11116;51.554;7.812;2022-10-16T10:27:51;100667.22;;;18.15;75.17
21904;BME280;11116;51.554;7.812;2022-10-16T10:30:24;100664.47;;;18.23;75.68
21904;BME280;11116;51.554;7.812;2022-10-16T10:33:05;100677.84;;;17.92;75.64
21904;BME280;11116;51.554;7.812;2022-10-16T10:35:42;100682.41;;;18.22;75.94
21904;BME280;11116;51.554;7.812;2022-10-16T10:38:24;100673.13;;;18.33;75.20
21904;BME280;11116;51.554;7.812;2022-10-16T10:41:04;100675.16;;;18.31;75.23
21904;BME280;11116;51.554;7.812;2022-10-16T10:43:48;100674.56;;;18.43;75.06
21904;BME280;11116;51.554;7.812;2022-10-16T10:46:28;100670.75;;;18.69;75.11
21904;BME280;11116;51.554;7.812;2022-10-16T10:49:09;100675.44;;;18.13;74.07
21904;BME280;11116;51.554;7.812;2022-10-16T10:51:43;100673.50;;;18.52;74.27
21904;BME280;11116;51.554;7.812;2022-10-16T10:54:20;100671.19;;;18.72;73.89
21904;BME280;11116;51.554;7.812;2022-10-16T10:56:58;100672.41;;;18.39;73.27
21904;BME280;11116;51.554;7.812;2022-10-16T10:59:55;100674.91;;;18.40;73.32
21904;BME280;11116;51.554;7.812;2022-10-16T11:05:23;100668.63;;;18.79;72.79
21904;BME280;11116;51.554;7.812;2022-10-16T11:07:57;100670.53;;;19.07;72.65
21904;BME280;11116;51.554;7.812;2022-10-16T11:10:29;100670.59;;;18.39;72.78
21904;BME280;11116;51.554;7.812;2022-10-16T11:13:01;100672.69;;;18.75;72.86
21904;BME280;11116;51.554;7.812;2022-10-16T11:15:32;100665.00;;;18.94;71.79
21904;BME280;11116;51.554;7.812;2022-10-16T11:18:05;100680.53;;;19.13;72.40
21904;BME280;11116;51.554;7.812;2022-10-16T11:20:34;100674.19;;;19.29;71.81
21904;BME280;11116;51.554;7.812;2022-10-16T11:23:10;100669.53;;;19.46;70.93
21904;BME280;11116;51.554;7.812;2022-10-16T11:25:43;100672.00;;;19.33;70.86
21904;BME280;11116;51.554;7.812;2022-10-16T11:28:13;100674.78;;;19.39;70.55
21904;BME280;11116;51.554;7.812;2022-10-16T11:30:44;100673.28;;;19.81;69.01
21904;BME280;11116;51.554;7.812;2022-10-16T11:33:27;100674.72;;;19.25;70.14
21904;BME280;11116;51.554;7.812;2022-10-16T11:36:08;100680.25;;;19.60;70.36
21904;BME280;11116;51.554;7.812;2022-10-16T11:38:43;100684.00;;;19.95;70.21
21904;BME280;11116;51.554;7.812;2022-10-16T11:41:18;100676.53;;;19.91;68.24
21904;BME280;11116;51.554;7.812;2022-10-16T11:43:53;100681.25;;;19.45;68.20
21904;BME280;11116;51.554;7.812;2022-10-16T11:46:24;100671.69;;;19.28;68.89
21904;BME280;11116;51.554;7.812;2022-10-16T11:48:57;100670.16;;;19.48;68.77
21904;BME280;11116;51.554;7.812;2022-10-16T11:51:32;100669.69;;;19.73;68.45
21904;BME280;11116;51.554;7.812;2022-10-16T11:54:07;100674.56;;;19.99;68.71
21904;BME280;11116;51.554;7.812;2022-10-16T11:56:39;100675.72;;;19.76;68.84
21904;BME280;11116;51.554;7.812;2022-10-16T11:59:14;100680.41;;;19.73;68.09
21904;BME280;11116;51.554;7.812;2022-10-16T12:01:47;100672.19;;;19.60;67.90
21904;BME280;11116;51.554;7.812;2022-10-16T12:04:22;100671.19;;;19.76;67.73
21904;BME280;11116;51.554;7.812;2022-10-16T12:06:57;100672.94;;;19.69;67.37
21904;BME280;11116;51.554;7.812;2022-10-16T12:09:26;100674.44;;;20.22;67.58
21904;BME280;11116;51.554;7.812;2022-10-16T12:11:55;100672.66;;;19.64;67.47
21904;BME280;11116;51.554;7.812;2022-10-16T12:14:35;100679.66;;;19.94;67.00
21904;BME280;11116;51.554;7.812;2022-10-16T12:17:03;100675.81;;;19.67;66.77
21904;BME280;11116;51.554;7.812;2022-10-16T12:19:32;100681.34;;;19.51;67.30
21904;BME280;11116;51.554;7.812;2022-10-16T12:22:00;100692.63;;;19.47;68.08
21904;BME280;11116;51.554;7.812;2022-10-16T12:24:34;100687.44;;;19.60;66.71
21904;BME280;11116;51.554;7.812;2022-10-16T12:27:05;100682.72;;;19.77;66.43
21904;BME280;11116;51.554;7.812;2022-10-16T12:29:35;100682.41;;;20.01;66.30
21904;BME280;11116;51.554;7.812;2022-10-16T12:32:04;100682.63;;;19.85;66.68
21904;BME280;11116;51.554;7.812;2022-10-16T12:34:37;100693.53;;;19.68;66.49
21904;BME280;11116;51.554;7.812;2022-10-16T12:37:11;100685.97;;;19.72;66.58
21904;BME280;11116;51.554;7.812;2022-10-16T12:39:39;100707.59;;;19.18;67.64
21904;BME280;11116;51.554;7.812;2022-10-16T12:42:22;100693.63;;;19.60;67.05
21904;BME280;11116;51.554;7.812;2022-10-16T12:44:49;100700.56;;;19.69;67.35
21904;BME280;11116;51.554;7.812;2022-10-16T12:47:21;100695.75;;;19.80;65.43
21904;BME280;11116;51.554;7.812;2022-10-16T12:49:51;100694.47;;;19.76;65.92
21904;BME280;11116;51.554;7.812;2022-10-16T12:52:27;100694.75;;;19.81;65.29
21904;BME280;11116;51.554;7.812;2022-10-16T12:54:56;100701.59;;;19.68;65.39
21904;BME280;11116;51.554;7.812;2022-10-16T12:57:37;100704.09;;;19.70;65.89
21904;BME280;11116;51.554;7.812;2022-10-16T13:00:13;100704.44;;;20.25;64.77